ADDS METAR Data INFO
IDs: Format: Raw Decoded Include TAF

Data at: 2049 UTC 24 Jun 2018

PAMB 242039Z AUTO 22009G16KT 170V260 10SM BKN023 13/07 A3003 RMK AO2 $
PAMB 241956Z AUTO 21009KT 10SM SCT023 BKN050 13/07 A3003 RMK AO2 SLP176 T01330072 $
PAMB 241856Z AUTO 24006G14KT 10SM SCT050 13/06 A3003 RMK AO2 SLP174 T01280056 $
PAMB 241756Z AUTO VRB04KT 10SM CLR 12/07 A3003 RMK AO2 SLP175 T01220067 10122 20072 56008 $
PAMB 241656Z AUTO 22005KT 10SM CLR 10/07 A3003 RMK AO2 SLP176 T01000067 $
PAMB 241556Z AUTO 24004KT 10SM FEW085 09/07 A3004 RMK AO2 SLP179 T00890067 $
PAMB 241456Z AUTO 23008KT 170V290 10SM SCT055 OVC080 08/07 A3005 RMK AO2 SLP183 T00780067 58004 $
PAMB 241356Z AUTO 27004KT 10SM BKN060 OVC085 07/06 A3007 RMK AO2 SLP188 T00720061 $
PAMB 241256Z AUTO 24005KT 10SM CLR 07/07 A3006 RMK AO2 SLP186 T00720067 $
PAMB 241156Z AUTO 24007KT 10SM CLR 08/07 A3007 RMK AO2 SLP188 T00830067 10128 20083 58003 $
PAMB 240956Z AUTO 23008KT 10SM OVC075 09/07 A3007 RMK AO2 SLP190 T00940067 $
PAMB 240856Z AUTO 25006KT 10SM OVC075 09/07 A3007 RMK AO2 SLP190 T00940067 401610033 55002 $
PAMB 240756Z AUTO 23007KT 10SM BKN065 11/07 A3007 RMK AO2 SLP190 T01060067 $
PAMB 240656Z AUTO 23008KT 10SM OVC075 12/06 A3008 RMK AO2 SLP192 T01170056 $
PAMB 240556Z AUTO 23007KT 10SM OVC070 13/05 A3008 RMK AO2 SLP193 T01280050 10161 20128 56002 $
PAMB 240456Z AUTO 23005KT 10SM OVC060 14/05 A3008 RMK AO2 SLP193 T01390050 $
PAMB 240356Z AUTO 23010KT 10SM BKN070 14/05 A3008 RMK AO2 SLP194 T01440050 $
PAMB 240256Z AUTO 23008KT 10SM FEW080 15/05 A3009 RMK AO2 SLP195 T01500050 57006 $
PAMB 240156Z AUTO 23007KT 10SM CLR 16/05 A3009 RMK AO2 SLP197 T01560050 $
PAMB 240056Z AUTO 27007KT 230V290 10SM FEW044 BKN080 16/05 A3010 RMK AO2 SLP199 T01560050 $
PAMB 232356Z AUTO 22007KT 10SM OVC050 14/04 A3011 RMK AO2 SLP201 T01440044 10144 20106 58004 $
PAMB 232256Z AUTO 00000KT 9SM OVC060 14/03 A3011 RMK AO2 SLP203 T01390033 $
PAMB 232156Z AUTO 20007KT 9SM OVC055 14/03 A3011 RMK AO2 SLP205 T01390028 $
PAMB 232056Z AUTO 00000KT 10SM SCT060 OVC085 14/03 A3012 RMK AO2 SLP205 T01390028 58004 $
PAMB 231956Z AUTO 00000KT 10SM BKN060 OVC085 12/04 A3013 RMK AO2 SLP209 T01220039 $
PAMB 231856Z AUTO 00000KT 10SM OVC070 11/04 A3013 RMK AO2 SLP209 T01110044 $
PAMB 231756Z AUTO 33003KT 10SM FEW060 OVC080 11/04 A3013 RMK AO2 SLP209 T01060039 10106 20033 50001 $
PAMB 231656Z AUTO 34004KT 10SM OVC080 08/06 A3013 RMK AO2 SLP210 T00830056 $
PAMB 231556Z AUTO 07003KT 10SM OVC075 06/06 A3013 RMK AO2 SLP211 T00610056 $
PAMB 231456Z AUTO 10006KT 10SM OVC075 05/04 A3012 RMK AO2 SLP208 T00500044 53000 $
PAMB 231356Z AUTO 15004KT 10SM OVC075 04/03 A3012 RMK AO2 SLP207 T00440033 $
PAMB 231256Z AUTO 04003KT 10SM OVC070 05/04 A3012 RMK AO2 SLP207 T00500044 $
PAMB 231156Z AUTO 06004KT 10SM OVC070 06/04 A3012 RMK AO2 SLP208 T00560039 10111 20044 53002 $
PAMB 231056Z AUTO 27005KT 10SM CLR 06/04 A3012 RMK AO2 SLP206 T00610039 $
PAMB 230956Z AUTO 28004KT 10SM CLR 07/06 A3012 RMK AO2 SLP206 T00720056 $
PAMB 230856Z AUTO 26003KT 10SM CLR 07/06 A3012 RMK AO2 SLP206 T00720056 401330072 51009 $